Time;durP1;ratioP1;P1;durP2;ratioP2;P2;SDS_P1;SDS_P2;PMS_P1;PMS_P2;Temp;Humidity;BMP_temperature;BMP_pressure;BME280_temperature;BME280_humidity;BME280_pressure;Samples;Min_cycle;Max_cycle;Signal;HPM_P1;HPM_P2
2022/05/21 00:00:26;;;;;;;13.10;3.40;;;;;;;15.40;70.84;101963.38;4971869;28;20046;-60
2022/05/21 00:02:53;;;;;;;16.00;3.83;;;;;;;15.46;70.63;101950.31;4983085;28;20530;-59
2022/05/21 00:05:21;;;;;;;18.75;3.70;;;;;;;15.52;70.47;101946.84;4980342;28;20561;-60
2022/05/21 00:07:46;;;;;;;18.15;3.40;;;;;;;15.59;70.28;101954.84;4978762;28;20395;-60
2022/05/21 00:10:14;;;;;;;19.55;3.65;;;;;;;15.70;69.89;101950.59;4978905;28;20408;-60
2022/05/21 00:12:41;;;;;;;14.18;4.00;;;;;;;15.79;70.12;101949.81;4979357;28;20050;-59
2022/05/21 00:15:08;;;;;;;18.52;5.10;;;;;;;15.80;69.88;101956.78;4974548;28;20096;-60
2022/05/21 00:17:33;;;;;;;21.02;5.03;;;;;;;15.83;69.84;101959.47;4976461;28;20209;-60
2022/05/21 00:19:59;;;;;;;18.27;4.95;;;;;;;15.89;70.01;101961.28;4982773;28;20203;-59
2022/05/21 00:22:25;;;;;;;20.65;5.07;;;;;;;15.99;69.44;101955.22;4972540;28;20053;-60
2022/05/21 00:24:50;;;;;;;20.30;4.80;;;;;;;16.00;69.42;101957.84;4980940;28;20046;-61
2022/05/21 00:27:15;;;;;;;13.93;4.82;;;;;;;16.07;69.52;101964.06;4978325;28;20095;-60
2022/05/21 00:29:41;;;;;;;17.40;4.30;;;;;;;16.08;69.41;101963.19;4983629;28;20642;-60
2022/05/21 00:32:06;;;;;;;16.27;3.85;;;;;;;16.18;69.03;101968.53;4981180;28;20338;-60
2022/05/21 00:34:34;;;;;;;17.13;4.47;;;;;;;16.22;69.00;101965.03;4970289;28;20054;-61
2022/05/21 00:37:00;;;;;;;16.45;4.07;;;;;;;16.34;68.67;101966.03;4982280;28;20493;-59
2022/05/21 00:39:26;;;;;;;17.02;4.03;;;;;;;16.41;68.41;101971.31;4979671;28;20052;-59
2022/05/21 00:41:51;;;;;;;16.38;3.88;;;;;;;16.40;68.22;101980.13;4972272;28;20616;-60
2022/05/21 00:44:17;;;;;;;13.75;3.83;;;;;;;16.43;68.33;101969.59;4976558;28;20046;-61
2022/05/21 00:46:44;;;;;;;15.40;3.60;;;;;;;16.45;68.06;101978.38;4981968;28;20049;-60
2022/05/21 00:49:23;;;;;;;13.43;3.90;;;;;;;16.44;67.96;101966.09;4981217;28;20053;-60
2022/05/21 00:52:10;;;;;;;20.73;3.97;;;;;;;16.49;67.74;101958.22;4981808;28;20057;-60
2022/05/21 00:54:46;;;;;;;14.13;3.65;;;;;;;16.57;68.01;101967.06;4978040;28;20433;-60
2022/05/21 00:57:33;;;;;;;17.83;3.60;;;;;;;16.54;67.81;101960.00;4995814;28;20041;-60
2022/05/21 01:00:12;;;;;;;17.02;3.58;;;;;;;16.58;67.55;101967.06;4982435;28;20525;-60
2022/05/21 01:02:49;;;;;;;14.02;3.35;;;;;;;16.55;67.58;101979.31;4969652;28;23050;-60
2022/05/21 01:05:18;;;;;;;14.55;2.95;;;;;;;16.56;67.35;101968.81;4980005;28;20971;-60
2022/05/21 01:07:45;;;;;;;12.93;3.35;;;;;;;16.57;67.35;101967.06;4978978;28;20414;-60
2022/05/21 01:10:14;;;;;;;17.80;3.60;;;;;;;16.43;67.63;101960.81;4982673;28;20041;-59
2022/05/21 01:12:47;;;;;;;17.38;4.03;;;;;;;16.53;67.59;101970.53;4980169;28;20084;-60
2022/05/21 01:15:20;;;;;;;16.80;4.00;;;;;;;16.48;67.64;101980.13;4980732;28;20042;-60
2022/05/21 01:17:46;;;;;;;19.70;3.70;;;;;;;16.49;67.75;101971.38;4979897;28;20399;-61
2022/05/21 01:20:19;;;;;;;15.27;3.60;;;;;;;16.54;67.51;101978.44;4980637;28;20430;-59
2022/05/21 01:22:53;;;;;;;15.48;3.50;;;;;;;16.45;67.55;101973.13;4982894;28;20053;-60
2022/05/21 01:25:22;;;;;;;18.52;4.00;;;;;;;16.56;67.25;101965.28;4974266;28;20104;-60
2022/05/21 01:27:49;;;;;;;21.17;4.13;;;;;;;16.53;67.22;101981.94;4976693;28;20046;-59
2022/05/21 01:30:23;;;;;;;12.75;3.30;;;;;;;16.55;67.16;101982.84;4980356;28;20043;-59
2022/05/21 01:32:50;;;;;;;16.60;3.65;;;;;;;16.44;67.54;101974.00;4978677;28;20493;-59
2022/05/21 01:35:18;;;;;;;14.27;3.40;;;;;;;16.43;67.32;101973.97;4976204;28;20481;-60
2022/05/21 01:37:44;;;;;;;15.50;3.35;;;;;;;16.38;67.40;101975.69;4981024;28;20052;-59
2022/05/21 01:40:11;;;;;;;18.30;3.42;;;;;;;16.40;67.50;101977.47;4972319;28;20046;-59
2022/05/21 01:42:36;;;;;;;15.30;3.35;;;;;;;16.32;67.79;101978.28;4970367;28;20839;-59
2022/05/21 01:45:03;;;;;;;18.88;4.00;;;;;;;16.27;67.72;101977.38;4976382;28;20116;-59
2022/05/21 01:47:31;;;;;;;17.60;3.10;;;;;;;16.23;67.84;101971.19;5002684;28;20044;-59
2022/05/21 01:49:56;;;;;;;15.93;3.50;;;;;;;16.12;67.96;101972.84;4972698;28;20485;-59
2022/05/21 01:52:22;;;;;;;17.77;3.65;;;;;;;16.04;68.58;101974.56;4968081;28;20100;-60
2022/05/21 01:54:47;;;;;;;17.10;3.53;;;;;;;15.94;68.95;101970.06;4983321;28;20056;-60
2022/05/21 01:57:13;;;;;;;18.45;3.88;;;;;;;15.95;68.82;101977.09;4976416;28;20435;-60
2022/05/21 01:59:39;;;;;;;17.05;3.53;;;;;;;15.94;68.89;101977.97;4978980;28;20076;-59
2022/05/21 02:02:04;;;;;;;18.80;3.60;;;;;;;15.92;68.83;101983.19;4971424;28;20322;-59
2022/05/21 02:04:30;;;;;;;17.30;3.25;;;;;;;15.86;69.16;101984.94;4974734;28;20516;-60
2022/05/21 02:06:55;;;;;;;21.00;3.35;;;;;;;15.82;69.22;101981.38;4977805;28;20553;-59
2022/05/21 02:09:21;;;;;;;19.45;3.42;;;;;;;15.76;69.24;101983.94;4980849;28;20037;-59
2022/05/21 02:11:47;;;;;;;19.55;3.25;;;;;;;15.77;69.44;101983.97;4982516;28;20077;-60
2022/05/21 02:14:13;;;;;;;17.88;3.40;;;;;;;15.73;69.59;101987.44;4980830;28;20157;-60
2022/05/21 02:16:39;;;;;;;17.75;3.08;;;;;;;15.70;69.70;101978.63;4979762;28;20971;-59
2022/05/21 02:19:06;;;;;;;19.42;3.30;;;;;;;15.66;69.56;101985.59;4984929;28;20037;-58
2022/05/21 02:21:33;;;;;;;15.43;3.28;;;;;;;15.61;69.37;101987.31;4978586;28;20134;-59
2022/05/21 02:23:58;;;;;;;16.50;3.22;;;;;;;15.54;69.69;101988.09;4979591;28;20484;-60
2022/05/21 02:26:25;;;;;;;19.08;3.65;;;;;;;15.49;69.81;101989.75;4959373;28;20118;-59
2022/05/21 02:28:51;;;;;;;16.67;3.22;;;;;;;15.51;69.99;101987.13;4979492;28;20434;-60
2022/05/21 02:31:16;;;;;;;14.70;3.30;;;;;;;15.48;69.76;101987.13;4978524;28;20108;-60
2022/05/21 02:33:43;;;;;;;15.15;3.05;;;;;;;15.49;69.73;101987.13;4977886;28;20041;-60
2022/05/21 02:36:09;;;;;;;16.65;3.08;;;;;;;15.57;69.36;101996.00;4977606;28;20050;-60
2022/05/21 02:41:18;;;;;;;15.40;2.93;;;;;;;15.52;69.10;101989.81;4976022;28;20072;-58
2022/05/21 02:43:44;;;;;;;16.15;3.08;;;;;;;15.55;68.90;101987.25;4984390;28;20129;-60
2022/05/21 02:46:11;;;;;;;16.45;3.42;;;;;;;15.51;69.00;101987.13;4977112;28;20129;-59
2022/05/21 02:48:37;;;;;;;15.40;3.17;;;;;;;15.52;69.02;101989.81;4978562;28;20417;-59
2022/05/21 02:51:03;;;;;;;17.85;3.30;;;;;;;15.49;68.95;101995.00;4981024;28;20473;-60
2022/05/21 02:53:29;;;;;;;14.48;2.97;;;;;;;15.48;68.50;101995.00;4985255;28;20140;-60
2022/05/21 02:55:55;;;;;;;14.13;2.75;;;;;;;15.44;69.01;101992.31;4984269;28;20577;-61
2022/05/21 02:58:22;;;;;;;18.35;3.03;;;;;;;15.41;68.80;101999.31;4973328;28;20034;-59
2022/05/21 03:00:48;;;;;;;12.52;3.17;;;;;;;15.37;68.74;101998.38;4981876;28;20057;-59
2022/05/21 03:03:14;;;;;;;10.38;2.88;;;;;;;15.39;68.52;101993.16;4982909;28;20072;-59
2022/05/21 03:05:40;;;;;;;16.38;2.92;;;;;;;15.42;68.29;101993.19;4982103;28;20149;-60
2022/05/21 03:10:20;;;;;;;10.77;2.55;;;;;;;15.38;68.24;101992.25;4981111;28;20743;-61
2022/05/21 03:10:52;;;;;;;21.33;3.47;;;;;;;15.42;67.96;101999.34;4982445;28;20056;-61
2022/05/21 03:13:18;;;;;;;14.48;2.80;;;;;;;15.36;68.24;101998.38;4983601;28;20149;-59
2022/05/21 03:15:43;;;;;;;14.63;2.83;;;;;;;15.31;68.23;101993.03;4979265;28;20054;-59
2022/05/21 03:18:11;;;;;;;11.60;2.47;;;;;;;15.32;68.22;101997.44;4978904;28;20038;-61
2022/05/21 03:20:38;;;;;;;16.58;2.65;;;;;;;15.28;68.13;101993.03;4979240;28;20587;-60
2022/05/21 03:23:04;;;;;;;17.35;3.05;;;;;;;15.30;67.93;101996.56;4984611;28;20061;-60
2022/05/21 03:25:30;;;;;;;14.40;2.72;;;;;;;15.21;67.92;102000.81;4983486;28;20386;-59
2022/05/21 03:27:56;;;;;;;14.02;3.10;;;;;;;15.28;67.65;102002.66;4983801;28;20104;-60
2022/05/21 03:30:24;;;;;;;15.73;2.90;;;;;;;15.27;67.50;102001.75;4973321;28;20041;-60
2022/05/21 03:32:50;;;;;;;17.10;3.33;;;;;;;15.25;67.40;101999.97;4981186;28;20066;-60
2022/05/21 03:35:18;;;;;;;12.07;2.55;;;;;;;15.33;67.00;102008.84;4983020;28;20143;-60
2022/05/21 03:37:44;;;;;;;12.57;2.60;;;;;;;15.28;67.15;102007.91;4980596;28;20121;-60
2022/05/21 03:40:13;;;;;;;14.20;2.75;;;;;;;15.27;66.99;102011.41;4983979;28;20145;-60
2022/05/21 03:42:38;;;;;;;12.48;2.90;;;;;;;15.27;66.85;102011.41;4973679;28;20120;-60
2022/05/21 03:45:05;;;;;;;16.40;3.03;;;;;;;15.28;66.59;102005.28;4974040;28;20083;-61
2022/05/21 03:47:30;;;;;;;12.48;3.00;;;;;;;15.28;66.65;102018.41;4976048;28;20053;-60
2022/05/21 03:49:56;;;;;;;17.70;3.00;;;;;;;15.30;66.45;102020.22;4980304;28;20480;-58
2022/05/21 03:52:21;;;;;;;14.85;2.67;;;;;;;15.28;66.25;102018.41;4974085;28;20078;-59
2022/05/21 03:54:47;;;;;;;13.77;2.55;;;;;;;15.23;66.39;102015.75;4980911;28;20046;-58
2022/05/21 03:57:14;;;;;;;12.15;2.55;;;;;;;15.30;66.00;102014.97;4980127;28;20181;-59
2022/05/21 03:59:39;;;;;;;20.50;3.40;;;;;;;15.34;65.92;102006.25;4978461;28;20133;-59
2022/05/21 04:02:05;;;;;;;13.50;2.75;;;;;;;15.35;65.71;102013.25;4980928;28;20042;-59
2022/05/21 04:04:31;;;;;;;15.68;3.00;;;;;;;15.38;65.57;102018.53;4973187;28;20176;-61
2022/05/21 04:06:56;;;;;;;18.67;3.50;;;;;;;15.33;65.25;102016.72;4981065;28;20501;-60
2022/05/21 04:09:22;;;;;;;15.65;3.08;;;;;;;15.43;65.30;102016.84;4984144;28;20069;-60
2022/05/21 04:11:47;;;;;;;17.55;3.00;;;;;;;15.44;65.29;102015.09;4984895;28;20049;-59
2022/05/21 04:14:14;;;;;;;15.27;2.88;;;;;;;15.47;65.11;102025.66;4976790;28;20323;-58
2022/05/21 04:16:41;;;;;;;15.38;2.97;;;;;;;15.58;64.86;102033.69;4976529;28;20496;-60
2022/05/21 04:19:06;;;;;;;17.42;3.35;;;;;;;15.57;64.61;102031.91;4986317;28;20451;-59
2022/05/21 04:21:31;;;;;;;17.35;3.35;;;;;;;15.60;64.87;102029.34;4976666;28;20309;-58
2022/05/21 04:23:57;;;;;;;16.80;3.17;;;;;;;15.63;64.68;102024.09;4980435;28;20543;-57
2022/05/21 04:26:22;;;;;;;13.85;2.88;;;;;;;15.58;64.48;102031.06;4977018;28;20049;-58
2022/05/21 04:28:48;;;;;;;14.48;2.80;;;;;;;15.60;64.43;102038.13;4981449;28;20033;-59
2022/05/21 04:31:13;;;;;;;14.10;2.70;;;;;;;15.64;64.38;102034.66;4980691;28;20104;-60
2022/05/21 04:33:39;;;;;;;13.30;2.90;;;;;;;15.67;64.25;102039.06;4980312;28;20411;-58
2022/05/21 04:36:20;;;;;;;12.15;2.60;;;;;;;15.70;63.98;102037.34;4979648;28;20050;-60
2022/05/21 04:38:51;;;;;;;16.17;2.67;;;;;;;15.76;63.91;102040.03;4980614;28;20083;-59
2022/05/21 04:41:19;;;;;;;14.02;2.53;;;;;;;15.98;64.45;102041.13;4981758;28;20117;-60
2022/05/21 04:43:45;;;;;;;14.00;3.47;;;;;;;16.19;63.21;102049.22;4978862;28;20149;-59
2022/05/21 04:46:11;;;;;;;18.13;2.70;;;;;;;16.49;61.91;102040.72;4974490;28;20088;-60
2022/05/21 04:48:37;;;;;;;15.05;2.45;;;;;;;16.92;61.87;102044.53;4971441;28;20363;-62
2022/05/21 04:51:04;;;;;;;15.45;3.30;;;;;;;17.54;59.21;102048.34;4982128;28;20497;-61
2022/05/21 04:53:29;;;;;;;13.20;2.65;;;;;;;18.45;57.06;102046.75;4982535;28;20089;-58
2022/05/21 04:55:56;;;;;;;13.18;2.63;;;;;;;19.12;53.82;102048.44;4976378;28;20040;-59
2022/05/21 04:58:21;;;;;;;12.95;2.83;;;;;;;19.75;52.41;102052.59;4969765;28;20053;-59
2022/05/21 05:00:47;;;;;;;11.18;2.80;;;;;;;20.02;51.77;102057.72;4979297;28;20049;-59
2022/05/21 05:03:14;;;;;;;13.43;2.80;;;;;;;20.23;50.71;102051.41;4977288;28;20045;-59
2022/05/21 05:05:40;;;;;;;15.40;2.80;;;;;;;20.05;50.32;102060.34;4977122;28;20656;-59
2022/05/21 05:08:06;;;;;;;12.38;2.90;;;;;;;19.69;51.43;102064.09;4979836;28;20045;-60
2022/05/21 05:10:33;;;;;;;13.75;2.78;;;;;;;19.10;52.46;102066.94;4972155;28;20061;-59
2022/05/21 05:12:58;;;;;;;14.95;3.00;;;;;;;18.51;54.35;102072.28;4982501;28;20053;-60
2022/05/21 05:15:23;;;;;;;17.67;3.08;;;;;;;18.34;55.20;102074.06;4981519;28;20210;-59
2022/05/21 05:17:49;;;;;;;19.27;3.20;;;;;;;18.00;55.96;102075.75;4980522;28;20070;-60
2022/05/21 05:20:14;;;;;;;16.15;2.75;;;;;;;17.98;56.10;102080.16;4975370;28;20444;-58
2022/05/21 05:22:39;;;;;;;16.23;2.88;;;;;;;17.82;56.54;102080.13;4977268;28;20570;-59
2022/05/21 05:25:05;;;;;;;14.88;2.90;;;;;;;17.77;56.40;102089.78;4979554;28;20147;-59
2022/05/21 05:27:31;;;;;;;19.63;3.20;;;;;;;17.56;57.54;102089.69;4978809;28;20100;-59
2022/05/21 05:29:57;;;;;;;11.50;2.60;;;;;;;17.54;57.95;102085.25;4977832;28;20045;-58
2022/05/21 05:32:22;;;;;;;17.13;2.88;;;;;;;17.56;57.89;102094.97;4972886;28;20049;-59
2022/05/21 05:34:47;;;;;;;16.08;2.95;;;;;;;17.59;57.77;102092.31;4985620;28;20045;-60
2022/05/21 05:37:13;;;;;;;16.70;3.15;;;;;;;17.57;57.94;102090.53;4973812;28;20046;-59
2022/05/21 05:39:38;;;;;;;17.92;3.05;;;;;;;17.57;58.45;102088.78;4978667;28;20042;-60
2022/05/21 05:42:04;;;;;;;16.00;3.47;;;;;;;17.51;57.68;102101.06;4979641;28;20569;-59
2022/05/21 05:44:31;;;;;;;15.05;3.03;;;;;;;17.56;58.08;102097.59;4974013;28;20629;-59
2022/05/21 05:46:57;;;;;;;14.77;2.65;;;;;;;17.56;57.79;102094.06;4982670;28;20157;-60
2022/05/21 05:49:22;;;;;;;14.13;3.03;;;;;;;17.62;57.43;102099.41;4982262;28;20037;-62
2022/05/21 05:51:48;;;;;;;15.60;2.97;;;;;;;18.25;57.87;102096.91;4976368;28;20068;-61
2022/05/21 05:54:13;;;;;;;18.05;2.72;;;;;;;19.02;54.71;102096.06;4974965;28;20044;-59
2022/05/21 05:56:43;;;;;;;11.68;2.70;;;;;;;19.97;51.41;102099.22;4980911;28;20497;-60
2022/05/21 06:02:57;;;;;;;14.68;2.90;;;;;;;21.84;47.69;102097.44;4980134;28;20055;-59
2022/05/21 06:04:40;;;;;;;14.25;2.80;;;;;;;23.28;44.15;102092.41;4978148;28;20045;-59
2022/05/21 06:07:05;;;;;;;11.50;2.40;;;;;;;24.06;41.91;102091.63;4981745;28;20048;-60
2022/05/21 06:09:32;;;;;;;12.25;2.50;;;;;;;23.56;41.04;102091.84;4976808;28;20058;-58
2022/05/21 06:11:58;;;;;;;12.50;2.50;;;;;;;24.24;40.31;102095.69;4981652;28;20046;-60
2022/05/21 06:14:23;;;;;;;13.95;2.88;;;;;;;24.37;40.09;102089.13;4978058;28;21128;-59
2022/05/21 06:16:49;;;;;;;13.60;2.65;;;;;;;25.34;38.70;102101.69;4980937;28;20053;-59
2022/05/21 06:19:14;;;;;;;13.23;2.60;;;;;;;25.28;38.46;102102.75;4985487;28;20042;-59
2022/05/21 06:21:39;;;;;;;12.13;2.67;;;;;;;25.75;37.27;102101.38;4980055;28;20045;-60
2022/05/21 06:24:05;;;;;;;9.52;2.30;;;;;;;26.76;35.82;102101.72;4982021;28;20050;-60
2022/05/21 06:26:30;;;;;;;11.82;2.50;;;;;;;26.60;36.43;102111.16;4979306;28;20061;-59
2022/05/21 06:28:58;;;;;;;12.85;2.60;;;;;;;27.49;34.30;102101.78;4982560;28;20041;-60
2022/05/21 06:31:23;;;;;;;11.18;2.40;;;;;;;27.05;34.68;102101.59;4982153;28;20413;-60
2022/05/21 06:33:49;;;;;;;9.90;2.47;;;;;;;27.61;34.22;102111.19;4978591;28;20694;-59
2022/05/21 06:36:15;;;;;;;11.52;2.97;;;;;;;27.75;33.32;102116.88;4982854;28;20594;-60
2022/05/21 06:38:41;;;;;;;11.05;2.63;;;;;;;28.73;32.30;102119.19;4978012;28;20049;-59
2022/05/21 06:41:07;;;;;;;12.32;2.65;;;;;;;27.78;33.26;102135.50;4987353;28;20121;-59
2022/05/21 06:43:33;;;;;;;9.00;2.22;;;;;;;28.91;31.19;102126.47;4981785;28;20073;-59
2022/05/21 06:45:58;;;;;;;11.57;2.67;;;;;;;28.27;31.89;102130.94;4988337;28;20033;-59
2022/05/21 06:48:24;;;;;;;11.90;2.67;;;;;;;27.91;32.02;102136.78;4975177;28;20064;-58
2022/05/21 06:50:49;;;;;;;13.05;2.67;;;;;;;27.52;34.04;102149.88;4983108;28;20077;-59
2022/05/21 06:53:15;;;;;;;12.55;2.63;;;;;;;27.22;36.27;102143.81;4982182;28;20497;-60
2022/05/21 06:55:41;;;;;;;13.05;2.55;;;;;;;26.54;36.78;102144.34;4975357;28;20108;-59
2022/05/21 06:58:07;;;;;;;14.25;2.85;;;;;;;26.98;34.97;102148.22;4979069;28;20481;-59
2022/05/21 07:00:33;;;;;;;9.43;2.58;;;;;;;27.57;33.57;102147.91;4974837;28;20255;-59
2022/05/21 07:02:58;;;;;;;10.60;2.47;;;;;;;27.50;34.71;102154.41;4973691;28;20118;-59
2022/05/21 07:08:19;;;;;;;12.48;2.50;;;;;;;27.41;34.24;102150.25;4980557;28;20076;-59
2022/05/21 07:10:45;;;;;;;11.40;2.60;;;;;;;28.30;33.22;102158.50;4980401;28;20678;-60
2022/05/21 07:13:10;;;;;;;13.30;2.95;;;;;;;28.59;32.77;102154.63;4988136;28;20305;-59
2022/05/21 07:15:35;;;;;;;12.05;2.65;;;;;;;28.50;32.83;102155.88;4979725;28;20493;-59
2022/05/21 07:18:01;;;;;;;11.35;2.50;;;;;;;28.35;31.82;102161.88;4975719;28;20353;-60
2022/05/21 07:20:28;;;;;;;12.55;2.70;;;;;;;28.00;33.25;102165.03;4969796;28;20041;-59
2022/05/21 07:22:54;;;;;;;9.73;2.50;;;;;;;28.25;32.65;102169.41;4978718;28;20042;-58
2022/05/21 07:25:23;;;;;;;13.20;2.75;;;;;;;27.86;33.67;102173.63;4981389;28;20548;-59
2022/05/21 07:27:50;;;;;;;10.02;2.50;;;;;;;27.65;33.55;102187.81;4982666;28;20766;-58
2022/05/21 07:30:16;;;;;;;10.68;2.38;;;;;;;27.48;33.07;102187.53;4980566;28;20345;-58
2022/05/21 07:32:41;;;;;;;13.85;2.92;;;;;;;27.26;34.24;102185.63;4982131;28;20045;-59
2022/05/21 07:35:10;;;;;;;13.57;2.65;;;;;;;27.10;34.00;102183.53;4981277;28;20048;-60
2022/05/21 07:37:36;;;;;;;11.98;2.55;;;;;;;27.52;33.80;102183.84;4977204;28;20046;-60
2022/05/21 07:40:06;;;;;;;12.18;2.60;;;;;;;27.11;34.89;102191.50;4980448;28;20497;-59
2022/05/21 07:42:32;;;;;;;10.63;2.40;;;;;;;27.26;33.65;102192.78;4973225;28;20155;-59
2022/05/21 07:44:58;;;;;;;12.07;2.70;;;;;;;27.37;34.58;102196.84;4978859;28;20283;-60
2022/05/21 07:47:24;;;;;;;11.50;2.90;;;;;;;27.71;32.82;102201.88;4978318;28;20048;-60
2022/05/21 07:49:56;;;;;;;10.07;2.60;;;;;;;27.77;33.99;102207.00;4981853;28;20061;-59
2022/05/21 07:52:22;;;;;;;13.23;3.00;;;;;;;27.24;34.72;102202.66;4978562;28;20041;-59
2022/05/21 07:54:47;;;;;;;8.95;2.58;;;;;;;26.85;34.64;102212.88;4978341;28;20461;-59
2022/05/21 07:57:13;;;;;;;12.73;2.75;;;;;;;26.91;34.84;102212.72;4971690;28;20493;-60
2022/05/21 07:59:39;;;;;;;12.77;2.90;;;;;;;26.30;36.37;102214.66;4981472;28;20077;-59
2022/05/21 08:02:05;;;;;;;12.65;3.00;;;;;;;26.40;36.71;102212.59;4988408;28;20052;-60
2022/05/21 08:04:31;;;;;;;11.40;2.83;;;;;;;27.09;35.64;102217.44;5200030;23;20562;-58
2022/05/21 08:06:56;;;;;;;15.13;2.60;;;;;;;27.29;36.21;102209.63;5104922;23;20108;-58
2022/05/21 08:09:22;;;;;;;12.38;2.63;;;;;;;27.36;35.39;102208.47;4941342;28;20558;-60
2022/05/21 08:11:51;;;;;;;13.00;2.42;;;;;;;27.43;34.97;102218.03;4964256;28;27969;-59
2022/05/21 08:14:16;;;;;;;15.40;3.05;;;;;;;27.50;34.03;102220.50;4973523;28;20049;-59
2022/05/21 08:16:41;;;;;;;12.77;2.90;;;;;;;27.18;35.35;102221.63;4955317;28;20042;-59
2022/05/21 08:19:07;;;;;;;11.68;2.70;;;;;;;27.48;34.98;102214.31;4973176;28;20057;-59
2022/05/21 08:21:32;;;;;;;10.80;2.55;;;;;;;27.80;34.02;102214.94;4973895;28;20050;-60
2022/05/21 08:26:57;;;;;;;13.65;2.53;;;;;;;27.69;34.22;102225.16;4973201;28;20053;-61
2022/05/21 08:29:28;;;;;;;10.90;2.75;;;;;;;26.59;36.04;102225.31;4968455;28;20049;-59
2022/05/21 08:31:54;;;;;;;12.60;2.80;;;;;;;25.57;37.32;102234.59;4962282;28;20038;-58
2022/05/21 08:34:21;;;;;;;16.83;2.97;;;;;;;25.42;38.54;102228.72;4974399;28;20073;-59
2022/05/21 08:36:47;;;;;;;14.68;2.85;;;;;;;25.24;38.71;102226.56;4978807;28;20208;-59
2022/05/21 08:39:13;;;;;;;13.23;2.72;;;;;;;25.09;38.51;102229.59;4979508;28;20504;-59
2022/05/21 08:41:45;;;;;;;9.93;2.70;;;;;;;24.55;40.48;102231.78;4975496;28;20041;-58
2022/05/21 08:44:27;;;;;;;11.57;2.97;;;;;;;24.46;40.91;102227.53;4978260;28;20030;-58
2022/05/21 08:47:01;;;;;;;10.70;2.70;;;;;;;24.87;39.49;102221.22;4980691;28;20397;-59
2022/05/21 08:49:50;;;;;;;12.05;2.78;;;;;;;24.70;39.70;102225.22;4978263;28;21082;-60
2022/05/21 08:52:24;;;;;;;13.98;3.00;;;;;;;24.01;41.57;102229.38;4976486;28;20049;-59
2022/05/21 08:54:52;;;;;;;14.80;3.17;;;;;;;23.82;42.25;102226.22;4980858;28;20144;-60
2022/05/21 08:57:26;;;;;;;12.40;3.05;;;;;;;23.78;41.99;102227.19;4978305;28;20042;-59
2022/05/21 09:00:01;;;;;;;13.75;2.83;;;;;;;23.84;43.77;102227.09;4976580;28;20053;-58
2022/05/21 09:02:31;;;;;;;17.02;3.22;;;;;;;23.84;41.81;102231.53;4972839;28;20806;-59
2022/05/21 09:04:57;;;;;;;15.75;3.22;;;;;;;23.85;41.48;102235.91;4980305;28;20721;-58
2022/05/21 09:07:25;;;;;;;16.17;2.92;;;;;;;23.99;41.95;102240.97;4979745;28;20058;-59
2022/05/21 09:10:03;;;;;;;11.85;2.80;;;;;;;24.26;41.76;102232.44;4977135;28;20037;-60
2022/05/21 09:12:40;;;;;;;14.55;3.45;;;;;;;24.06;41.86;102227.50;4967611;28;20096;-60
2022/05/21 09:15:07;;;;;;;10.13;2.47;;;;;;;23.86;41.84;102230.56;4978281;28;20052;-59
2022/05/21 09:17:41;;;;;;;14.60;2.67;;;;;;;24.34;42.04;102229.59;4964128;28;20137;-59
2022/05/21 09:20:14;;;;;;;14.43;3.00;;;;;;;24.21;41.00;102224.53;4980976;28;20073;-60
2022/05/21 09:22:39;;;;;;;10.20;2.78;;;;;;;24.51;42.22;102230.09;4975609;28;20579;-58
2022/05/21 09:25:17;;;;;;;14.43;2.60;;;;;;;24.29;41.39;102227.03;4978875;28;20062;-59
2022/05/21 09:27:43;;;;;;;14.75;2.90;;;;;;;24.13;40.82;102228.25;4976803;28;20547;-59
2022/05/21 09:30:36;;;;;;;11.77;2.80;;;;;;;24.35;40.83;102236.69;4980186;28;20604;-60
2022/05/21 09:33:26;;;;;;;14.40;3.30;;;;;;;24.39;40.05;102233.06;4977937;28;20532;-60
2022/05/21 09:35:57;;;;;;;13.55;2.80;;;;;;;23.99;41.83;102230.31;4955273;28;20213;-59
2022/05/21 09:38:22;;;;;;;16.88;2.90;;;;;;;23.79;43.03;102234.25;4967866;28;20133;-60
2022/05/21 09:40:49;;;;;;;8.80;2.42;;;;;;;23.67;41.04;102238.94;4972704;28;20044;-59
2022/05/21 09:46:19;;;;;;;15.40;2.95;;;;;;;23.82;42.24;102236.00;4974678;28;20093;-59
2022/05/21 09:48:46;;;;;;;12.68;2.80;;;;;;;24.26;40.58;102240.44;4977228;28;20204;-59
2022/05/21 09:51:29;;;;;;;13.88;3.13;;;;;;;24.06;41.09;102238.16;4980841;28;20050;-59
2022/05/21 09:53:54;;;;;;;14.43;2.97;;;;;;;24.27;42.16;102237.72;4978845;28;20050;-59
2022/05/21 09:56:25;;;;;;;14.73;3.10;;;;;;;24.12;41.01;102243.34;4970520;28;20048;-61
2022/05/21 09:59:12;;;;;;;12.60;3.08;;;;;;;23.78;41.55;102239.63;4967326;28;20678;-58
2022/05/21 10:01:41;;;;;;;14.02;2.75;;;;;;;23.27;43.07;102244.09;4973184;28;20038;-59
2022/05/21 10:04:17;;;;;;;13.07;2.63;;;;;;;22.98;42.98;102249.91;4979801;28;20049;-59
2022/05/21 10:06:52;;;;;;;14.70;2.80;;;;;;;23.52;42.87;102263.22;4953411;28;20074;-58
2022/05/21 10:12:17;;;;;;;12.95;2.88;;;;;;;23.91;42.21;102257.09;4979526;28;20466;-59
2022/05/21 10:15:01;;;;;;;12.65;2.78;;;;;;;23.92;41.19;102263.31;4976350;28;20042;-60
2022/05/21 10:18:12;;;;;;;12.27;2.83;;;;;;;23.67;42.57;102255.78;4977055;28;20058;-59
2022/05/21 10:20:46;;;;;;;12.18;3.13;;;;;;;23.52;43.25;102268.53;4918021;28;20050;-58
2022/05/21 10:23:31;;;;;;;13.23;2.97;;;;;;;23.77;41.61;102262.72;4981130;28;20484;-57
2022/05/21 10:26:22;;;;;;;13.25;2.90;;;;;;;23.69;42.45;102266.44;4956321;28;20128;-57
2022/05/21 18:09:30;;;;;;;8.90;1.90;;;;;;;18.91;51.11;102152.41;5057158;28;20430;-57
2022/05/21 18:11:56;;;;;;;9.10;1.88;;;;;;;19.34;50.31;102161.16;5037945;28;20128;-57
2022/05/21 18:15:07;;;;;;;8.48;2.15;;;;;;;19.41;49.84;102158.50;5029311;28;20218;-57
2022/05/21 18:20:16;;;;;;;10.27;2.50;;;;;;;19.34;49.96;102156.75;5015666;28;20043;-57
2022/05/21 18:22:42;;;;;;;8.82;1.98;;;;;;;19.33;50.36;102154.16;4997413;28;20445;-59
2022/05/21 18:25:07;;;;;;;8.93;2.47;;;;;;;19.15;50.88;102148.91;4994868;28;20843;-59
2022/05/21 18:27:33;;;;;;;9.90;2.22;;;;;;;19.07;50.61;102162.13;4997388;28;20049;-58
2022/05/21 18:29:58;;;;;;;9.07;2.55;;;;;;;19.02;50.20;102155.97;4989986;28;20447;-58
2022/05/21 18:32:23;;;;;;;9.00;2.17;;;;;;;18.97;50.51;102158.59;4988293;28;20056;-58
2022/05/21 18:34:51;;;;;;;7.10;2.05;;;;;;;18.91;51.11;102161.22;4996259;28;20046;-59
2022/05/21 18:37:18;;;;;;;7.70;2.15;;;;;;;18.89;51.60;102162.13;4992949;28;20038;-58
2022/05/21 18:39:45;;;;;;;12.05;2.60;;;;;;;18.82;51.59;102165.66;4998012;28;20099;-58
2022/05/21 18:42:10;;;;;;;11.77;2.40;;;;;;;18.73;52.01;102171.81;4997639;28;20493;-57
2022/05/21 18:44:38;;;;;;;9.60;2.55;;;;;;;18.67;52.77;102178.84;4988036;28;20085;-57
2022/05/21 18:47:04;;;;;;;8.40;2.47;;;;;;;18.71;52.23;102164.78;4991766;28;20690;-60
2022/05/21 18:49:30;;;;;;;10.45;2.47;;;;;;;18.70;52.01;102163.91;4995662;28;20316;-59
2022/05/21 18:51:56;;;;;;;11.75;2.72;;;;;;;18.64;52.49;102166.53;4990260;28;20038;-58
2022/05/21 18:54:21;;;;;;;8.35;2.45;;;;;;;18.62;52.35;102168.28;4988369;28;20657;-59
2022/05/21 18:56:47;;;;;;;7.85;2.58;;;;;;;18.59;52.37;102161.25;4996204;28;20076;-57
2022/05/21 18:59:13;;;;;;;7.55;2.30;;;;;;;18.54;52.69;102168.22;5001903;28;20046;-58
2022/05/21 19:01:39;;;;;;;11.35;3.22;;;;;;;18.45;52.64;102165.59;4996172;28;20034;-58
2022/05/21 19:04:12;;;;;;;11.25;2.70;;;;;;;18.50;51.90;102161.19;4992922;28;20091;-62
2022/05/21 19:06:39;;;;;;;11.15;3.10;;;;;;;18.50;52.11;102168.22;4995270;28;20050;-58
2022/05/21 19:09:04;;;;;;;10.35;2.85;;;;;;;18.40;51.89;102159.44;4997645;28;20041;-57
2022/05/21 19:11:29;;;;;;;9.98;2.97;;;;;;;18.26;52.34;102171.72;5002862;28;20476;-59
2022/05/21 19:13:55;;;;;;;12.32;2.80;;;;;;;18.25;52.91;102164.66;4997349;28;20054;-57
2022/05/21 19:16:24;;;;;;;10.18;2.65;;;;;;;18.19;53.05;102162.91;4989445;28;20041;-58
2022/05/21 19:19:12;;;;;;;10.98;3.05;;;;;;;18.03;53.79;102154.94;4999144;28;20665;-56
2022/05/21 19:21:59;;;;;;;8.63;2.58;;;;;;;17.93;54.22;102156.66;4998768;28;20130;-58